EDFH Airport Information

Runway Information
Runway 03 Length 12467 ft width 148 ft
Elevation 1649 ft Threshold 3461 ft Heading 32
Runway 21 Length 12467 ft Width 148 ft
Elevation 1595 ft Threshold 984 ft Heading 212
Airport Frequencies
Type AFIS Name LANGEN INF Frequency 123.525 MHZ
Type APP Name LANGEN RAD Frequency 125.6 MHZ
Type ATIS Name ATIS Frequency 136.35 MHZ
Type GND Name GND Frequency 121.975 MHZ
Type TWR Name TWR Frequency 119.65 MHZ
Airport Navaids
Type NDB Name Hahn Frequency 376 KHZ
Type DME Name Hahn Frequency 116950 KHZ
Airport Weather Information & NOTAM
ADDS - METARS form results

(1858 UTC 17 October 2018)
Data provider http://aviationweather.gov/metar/data/
 
METAR text: EDFH 171850Z 12003KT CAVOK 16/08 Q1020
Conditions at: EDFH (HAHN , DE) observed 1850 UTC 17 October 2018
Temperature: 16.0°C (61°F)
Dewpoint: 8.0°C (46°F) [RH = 59%]
Pressure (altimeter): 30.12 inches Hg (1020.0 mb)
Winds: from the ESE (120 degrees) at 3 MPH (3 knots; 1.5 m/s)
Visibility: 6 or more miles (10+ km)
Ceiling: ceiling and visibility are OK
Clouds: unknown
Weather: no significant weather observed at this time

METAR text: EDFH 171820Z 12005KT CAVOK 17/08 Q1019
Conditions at: EDFH (HAHN , DE) observed 1820 UTC 17 October 2018
Temperature: 17.0°C (63°F)
Dewpoint: 8.0°C (46°F) [RH = 55%]
Pressure (altimeter): 30.09 inches Hg (1019.0 mb)
Winds: from the ESE (120 degrees) at 6 MPH (5 knots; 2.6 m/s)
Visibility: 6 or more miles (10+ km)
Ceiling: ceiling and visibility are OK
Clouds: unknown
Weather: no significant weather observed at this time

Forecast for: EDFH (HAHN , DE)
Text: TAF EDFH 171700Z 1718/1818 VRB03KT CAVOK
Forecast period: 1800 to 2100 UTC 17 October 2018
Forecast type: FROM: standard forecast or significant change
Winds: variable direction winds at 3 MPH (3 knots; 1.5 m/s)
Visibility: 6 or more miles 10+ km)
Ceiling: unknown
Clouds: missing
Weather: NSW  (no significant weather)
Text: BECMG 1721/1724 02007KT
Forecast period: 2100 UTC 17 October 2018 to 1800 UTC 18 October 2018
Forecast type: BECOMING: Conditions expected to become as follows by 0000 UTC 18 October 2018
Winds: from the NNE (20 degrees) at 8 MPH (7 knots; 3.6 m/s)
Visibility: 6 or more miles 10+ km)
Ceiling: unknown
Clouds: missing
Weather: NSW  (no significant weather)
Text: PROB30
Forecast period: 0300 to 0900 UTC 18 October 2018
Forecast type: TEMPORARY: The following changes expected for less than half the time period
Visibility: 1.86 miles (2.99 km)
Ceiling: 400 feet AGL
Clouds: broken clouds at 400 feet AGL
Weather: BR  (mist)